Time;durP1;ratioP1;P1;durP2;ratioP2;P2;SDS_P1;SDS_P2;PMS_P1;PMS_P2;Temp;Humidity;BMP_temperature;BMP_pressure;BME280_temperature;BME280_humidity;BME280_pressure;Samples;Min_cycle;Max_cycle;Signal;HPM_P1;HPM_P2
2023/01/13 00:00:58;;;;;;;;;;;9.00;99.90;;;;;;5014686;28;19932;-83
2023/01/13 00:03:23;;;;;;;;;;;9.00;99.90;;;;;;5022509;28;19933;-82
2023/01/13 00:05:49;;;;;;;;;;;8.90;99.90;;;;;;5030169;28;19929;-82
2023/01/13 00:08:15;;;;;;;;;;;8.90;99.90;;;;;;5032867;28;19992;-82
2023/01/13 00:10:40;;;;;;;;;;;8.90;99.90;;;;;;4998531;28;19925;-81
2023/01/13 00:13:06;;;;;;;;;;;8.80;99.90;;;;;;5016168;28;20067;-82
2023/01/13 00:15:32;;;;;;;;;;;8.70;99.90;;;;;;5029802;28;19925;-82
2023/01/13 00:17:57;;;;;;;;;;;8.70;99.90;;;;;;5030859;28;19947;-82
2023/01/13 00:20:23;;;;;;;;;;;8.60;99.90;;;;;;5025378;28;19929;-82
2023/01/13 00:22:48;;;;;;;;;;;8.60;99.90;;;;;;5012610;28;19991;-82
2023/01/13 00:25:14;;;;;;;;;;;8.60;99.90;;;;;;5016433;28;19929;-82
2023/01/13 00:27:39;;;;;;;;;;;8.50;99.90;;;;;;5028891;28;20415;-82
2023/01/13 00:30:05;;;;;;;;;;;8.50;99.90;;;;;;5015483;28;19936;-82
2023/01/13 00:32:31;;;;;;;;;;;8.40;99.90;;;;;;5012714;28;20502;-82
2023/01/13 00:34:57;;;;;;;;;;;8.40;99.90;;;;;;5015055;28;20455;-82
2023/01/13 00:37:23;;;;;;;;;;;8.30;99.90;;;;;;5032896;28;19939;-82
2023/01/13 00:39:52;;;;;;;;;;;8.30;99.90;;;;;;5013948;28;19932;-82
2023/01/13 00:45:02;;;;;;;;;;;8.20;99.90;;;;;;5020444;28;19933;-82
2023/01/13 00:47:28;;;;;;;;;;;8.20;99.90;;;;;;5014997;28;19987;-82
2023/01/13 00:49:54;;;;;;;;;;;8.10;99.90;;;;;;4998631;28;19925;-82
2023/01/13 00:52:19;;;;;;;;;;;8.10;99.90;;;;;;5025616;28;19968;-82
2023/01/13 00:54:45;;;;;;;;;;;8.10;99.90;;;;;;5013606;28;19976;-82
2023/01/13 00:57:10;;;;;;;;;;;8.10;99.90;;;;;;5028495;28;21006;-82
2023/01/13 00:59:36;;;;;;;;;;;8.10;99.90;;;;;;5015150;28;20759;-82
2023/01/13 01:02:02;;;;;;;;;;;8.10;99.90;;;;;;5027008;28;19925;-82
2023/01/13 01:04:27;;;;;;;;;;;8.00;99.90;;;;;;5029521;28;19975;-83
2023/01/13 01:06:53;;;;;;;;;;;8.10;99.90;;;;;;5031667;28;19997;-83
2023/01/13 01:09:18;;;;;;;;;;;8.10;99.90;;;;;;5021472;28;19925;-82
2023/01/13 01:11:44;;;;;;;;;;;8.10;99.90;;;;;;5015022;28;20059;-82
2023/01/13 01:14:11;;;;;;;;;;;8.10;99.90;;;;;;5028790;28;20348;-82
2023/01/13 01:16:37;;;;;;;;;;;8.10;99.90;;;;;;5012514;28;19929;-82
2023/01/13 01:19:03;;;;;;;;;;;8.10;99.90;;;;;;5011507;28;19940;-82
2023/01/13 01:21:29;;;;;;;;;;;8.10;99.90;;;;;;5029997;28;19925;-82
2023/01/13 01:23:57;;;;;;;;;;;8.10;99.90;;;;;;5012323;28;19956;-82
2023/01/13 01:26:23;;;;;;;;;;;8.20;99.90;;;;;;4997885;28;19991;-82
2023/01/13 01:28:49;;;;;;;;;;;8.20;99.90;;;;;;5012936;28;19936;-82
2023/01/13 01:31:23;;;;;;;;;;;8.20;99.90;;;;;;5013519;28;19925;-82
2023/01/13 01:33:48;;;;;;;;;;;8.20;99.90;;;;;;5011702;28;19932;-82
2023/01/13 01:36:15;;;;;;;;;;;8.20;99.90;;;;;;5033125;28;19925;-82
2023/01/13 01:38:41;;;;;;;;;;;8.20;99.90;;;;;;5015245;28;19988;-82
2023/01/13 01:41:07;;;;;;;;;;;8.20;99.90;;;;;;5035031;28;19953;-81
2023/01/13 01:43:58;;;;;;;;;;;8.20;99.90;;;;;;5034320;28;19929;-83
2023/01/13 01:46:44;;;;;;;;;;;8.20;99.90;;;;;;5008542;28;19929;-82
2023/01/13 01:49:22;;;;;;;;;;;8.10;99.90;;;;;;5010026;28;19925;-83
2023/01/13 01:51:58;;;;;;;;;;;8.10;99.90;;;;;;5028046;28;19925;-83
2023/01/13 01:54:30;;;;;;;;;;;8.00;99.90;;;;;;5029701;28;19929;-82
2023/01/13 01:56:56;;;;;;;;;;;8.00;99.90;;;;;;4998243;28;19972;-83
2023/01/13 01:59:24;;;;;;;;;;;8.00;99.90;;;;;;5014636;28;19930;-82
2023/01/13 02:01:49;;;;;;;;;;;8.00;99.90;;;;;;4997001;28;20436;-82
2023/01/13 02:04:19;;;;;;;;;;;8.00;99.90;;;;;;5003037;28;19932;-82
2023/01/13 02:06:46;;;;;;;;;;;7.90;99.90;;;;;;4995457;28;19960;-82
2023/01/13 02:09:12;;;;;;;;;;;7.90;99.90;;;;;;5017538;28;19945;-82
2023/01/13 02:14:24;;;;;;;;;;;7.80;99.90;;;;;;5011665;28;20037;-82
2023/01/13 02:17:10;;;;;;;;;;;7.80;99.90;;;;;;4998776;28;19933;-82
2023/01/13 02:19:39;;;;;;;;;;;7.80;99.90;;;;;;4953032;28;19968;-82
2023/01/13 02:22:23;;;;;;;;;;;7.80;99.90;;;;;;4996017;28;19930;-82
2023/01/13 02:25:24;;;;;;;;;;;7.70;99.90;;;;;;4981472;28;19933;-83
2023/01/13 02:28:12;;;;;;;;;;;7.70;99.90;;;;;;4951649;29;19927;-82
2023/01/13 02:33:25;;;;;;;;;;;7.70;99.90;;;;;;5011004;28;19984;-82
2023/01/13 02:35:55;;;;;;;;;;;7.70;99.90;;;;;;4995551;28;19964;-82
2023/01/13 02:38:28;;;;;;;;;;;7.60;99.90;;;;;;4996214;28;19976;-83
2023/01/13 02:44:05;;;;;;;;;;;7.60;99.90;;;;;;4995626;28;19926;-82
2023/01/13 02:44:05;;;;;;;;;;;7.50;99.90;;;;;;4994167;28;19972;-83
2023/01/13 02:46:50;;;;;;;;;;;7.50;99.90;;;;;;4997610;28;20201;-82
2023/01/13 02:49:20;;;;;;;;;;;7.50;99.90;;;;;;5009655;28;19948;-82
2023/01/13 02:51:46;;;;;;;;;;;7.40;99.90;;;;;;4997174;28;19925;-82
2023/01/13 02:54:14;;;;;;;;;;;7.40;99.90;;;;;;5013690;28;19929;-82
2023/01/13 02:56:42;;;;;;;;;;;7.40;99.90;;;;;;5031292;28;19925;-82
2023/01/13 02:59:08;;;;;;;;;;;7.40;99.90;;;;;;5016029;28;19925;-82
2023/01/13 03:01:33;;;;;;;;;;;7.40;99.90;;;;;;5015572;28;19929;-82
2023/01/13 03:04:09;;;;;;;;;;;7.50;99.90;;;;;;5017504;28;19937;-82
2023/01/13 03:06:53;;;;;;;;;;;7.60;99.90;;;;;;4995052;28;19935;-82
2023/01/13 03:09:28;;;;;;;;;;;7.60;99.90;;;;;;5029858;28;19929;-83
2023/01/13 03:12:14;;;;;;;;;;;7.60;99.90;;;;;;5017785;28;19929;-83
2023/01/13 03:15:00;;;;;;;;;;;7.70;99.90;;;;;;4995393;28;19925;-82
2023/01/13 03:17:31;;;;;;;;;;;7.70;99.90;;;;;;5007464;28;19925;-82
2023/01/13 03:20:05;;;;;;;;;;;7.70;99.90;;;;;;5014160;28;19952;-82
2023/01/13 03:22:41;;;;;;;;;;;7.80;99.90;;;;;;5031858;28;19925;-82
2023/01/13 03:25:10;;;;;;;;;;;7.80;99.90;;;;;;5016124;28;19956;-82
2023/01/13 03:27:41;;;;;;;;;;;7.80;99.90;;;;;;5009413;28;19933;-82
2023/01/13 03:30:09;;;;;;;;;;;7.90;99.90;;;;;;5029793;28;19988;-82
2023/01/13 03:32:40;;;;;;;;;;;7.90;99.90;;;;;;5012089;28;19925;-82
2023/01/13 03:35:15;;;;;;;;;;;8.00;99.90;;;;;;5032373;28;19991;-83
2023/01/13 03:37:44;;;;;;;;;;;8.00;99.90;;;;;;5018557;28;19925;-82
2023/01/13 03:40:12;;;;;;;;;;;8.00;99.90;;;;;;5028816;28;19991;-82
2023/01/13 03:42:39;;;;;;;;;;;7.90;99.90;;;;;;5014883;28;19979;-82
2023/01/13 03:45:13;;;;;;;;;;;7.90;99.90;;;;;;4997218;28;19933;-82
2023/01/13 03:47:49;;;;;;;;;;;8.00;99.90;;;;;;5010652;28;20232;-82
2023/01/13 03:50:21;;;;;;;;;;;8.00;99.90;;;;;;5025974;28;19940;-83
2023/01/13 03:52:49;;;;;;;;;;;8.00;99.90;;;;;;5013889;28;19952;-83
2023/01/13 03:55:17;;;;;;;;;;;8.00;99.90;;;;;;5039670;28;20063;-82
2023/01/13 03:57:52;;;;;;;;;;;8.10;99.90;;;;;;5030097;28;20295;-82
2023/01/13 04:00:18;;;;;;;;;;;8.00;99.90;;;;;;5032572;28;19971;-83
2023/01/13 04:02:44;;;;;;;;;;;8.00;99.90;;;;;;5012062;28;19933;-82
2023/01/13 04:05:09;;;;;;;;;;;8.00;99.90;;;;;;5031283;28;19996;-83
2023/01/13 04:07:54;;;;;;;;;;;7.90;99.90;;;;;;5013656;28;19952;-82
2023/01/13 04:10:52;;;;;;;;;;;7.90;99.90;;;;;;5030767;28;19982;-82
2023/01/13 04:13:20;;;;;;;;;;;7.90;99.90;;;;;;4995482;28;19960;-82
2023/01/13 04:15:47;;;;;;;;;;;8.00;99.90;;;;;;5014766;28;19933;-82
2023/01/13 04:18:14;;;;;;;;;;;8.00;99.90;;;;;;5027142;28;19930;-82
2023/01/13 04:20:41;;;;;;;;;;;8.00;99.90;;;;;;5029795;28;19937;-83
2023/01/13 04:23:07;;;;;;;;;;;8.00;99.90;;;;;;5011685;28;19929;-82
2023/01/13 04:25:32;;;;;;;;;;;8.00;99.90;;;;;;5028171;28;19932;-82
2023/01/13 04:27:58;;;;;;;;;;;8.00;99.90;;;;;;5029317;28;19939;-82
2023/01/13 04:30:23;;;;;;;;;;;8.00;99.90;;;;;;5014121;28;19929;-82
2023/01/13 04:32:49;;;;;;;;;;;7.90;99.90;;;;;;5011827;28;19929;-82
2023/01/13 04:35:15;;;;;;;;;;;7.90;99.90;;;;;;5012728;28;19929;-82
2023/01/13 04:37:40;;;;;;;;;;;7.90;99.90;;;;;;5007399;28;20000;-82
2023/01/13 04:40:06;;;;;;;;;;;7.90;99.90;;;;;;5013453;28;19933;-82
2023/01/13 04:42:32;;;;;;;;;;;7.90;99.90;;;;;;5031705;28;19929;-82
2023/01/13 04:44:57;;;;;;;;;;;7.80;99.90;;;;;;4994997;28;19936;-82
2023/01/13 04:47:23;;;;;;;;;;;7.80;99.90;;;;;;5011923;28;20250;-82
2023/01/13 04:49:48;;;;;;;;;;;7.80;99.90;;;;;;5027434;28;19925;-82
2023/01/13 04:52:14;;;;;;;;;;;7.70;99.90;;;;;;5026948;28;19925;-82
2023/01/13 04:54:40;;;;;;;;;;;7.80;99.90;;;;;;5032369;28;20143;-82
2023/01/13 04:57:05;;;;;;;;;;;7.80;99.90;;;;;;5012199;28;19933;-82
2023/01/13 04:59:31;;;;;;;;;;;7.80;99.90;;;;;;5017736;28;19933;-82
2023/01/13 05:01:56;;;;;;;;;;;7.80;99.90;;;;;;5029817;28;19937;-82
2023/01/13 05:04:22;;;;;;;;;;;7.80;99.90;;;;;;4997919;28;19943;-82
2023/01/13 05:06:47;;;;;;;;;;;7.70;99.90;;;;;;5011923;28;19929;-82
2023/01/13 05:09:14;;;;;;;;;;;7.70;99.90;;;;;;5028407;28;19991;-82
2023/01/13 05:17:09;;;;;;;;;;;7.60;99.90;;;;;;5031144;28;20406;-82
2023/01/13 05:19:38;;;;;;;;;;;7.60;99.90;;;;;;5030421;28;20414;-82
2023/01/13 05:27:32;;;;;;;;;;;7.60;99.90;;;;;;5027081;28;19929;-83
2023/01/13 05:29:58;;;;;;;;;;;7.60;99.90;;;;;;5033716;28;19925;-82
2023/01/13 05:32:24;;;;;;;;;;;7.60;99.90;;;;;;5018202;28;19971;-82
2023/01/13 05:34:50;;;;;;;;;;;7.60;99.90;;;;;;5000764;28;20283;-83
2023/01/13 05:37:15;;;;;;;;;;;7.60;99.90;;;;;;5034107;28;19930;-87
2023/01/13 05:45:10;;;;;;;;;;;7.70;99.90;;;;;;5035999;28;19932;-87
2023/01/13 05:47:35;;;;;;;;;;;7.70;99.90;;;;;;5034955;28;20090;-87
2023/01/13 05:50:01;;;;;;;;;;;7.70;99.90;;;;;;5016639;28;19925;-87
2023/01/13 05:52:27;;;;;;;;;;;7.70;99.90;;;;;;5029361;28;19947;-87
2023/01/13 05:54:53;;;;;;;;;;;7.60;99.90;;;;;;5014678;28;19930;-87
2023/01/13 05:57:18;;;;;;;;;;;7.70;99.90;;;;;;5015654;28;19928;-87
2023/01/13 05:59:44;;;;;;;;;;;7.70;99.90;;;;;;5033706;28;20311;-88
2023/01/13 06:02:09;;;;;;;;;;;7.80;99.90;;;;;;5030992;28;19932;-87
2023/01/13 06:04:35;;;;;;;;;;;7.80;99.90;;;;;;5015944;28;19929;-87
2023/01/13 06:07:00;;;;;;;;;;;7.80;99.90;;;;;;5029583;28;19941;-87
2023/01/13 06:09:26;;;;;;;;;;;7.80;99.90;;;;;;5032059;28;19965;-88
2023/01/13 06:11:51;;;;;;;;;;;7.80;99.90;;;;;;5037864;28;19980;-88
2023/01/13 06:14:17;;;;;;;;;;;7.90;99.90;;;;;;5024787;28;20449;-87
2023/01/13 06:16:44;;;;;;;;;;;7.90;99.90;;;;;;5022315;28;19925;-87
2023/01/13 06:19:11;;;;;;;;;;;7.90;99.90;;;;;;5035837;28;19944;-87
2023/01/13 06:21:37;;;;;;;;;;;7.90;99.90;;;;;;5021830;28;19925;-87
2023/01/13 06:24:04;;;;;;;;;;;7.90;99.90;;;;;;5001340;28;20387;-87
2023/01/13 06:26:32;;;;;;;;;;;8.00;99.90;;;;;;5021907;28;19932;-88
2023/01/13 06:28:57;;;;;;;;;;;8.00;99.90;;;;;;5005873;28;20399;-88
2023/01/13 06:31:24;;;;;;;;;;;8.00;99.90;;;;;;5015807;28;19936;-90
2023/01/13 06:33:51;;;;;;;;;;;8.00;99.90;;;;;;5036706;28;19957;-89
2023/01/13 06:36:24;;;;;;;;;;;7.90;99.90;;;;;;5019269;28;19961;-89
2023/01/13 06:38:52;;;;;;;;;;;8.00;99.90;;;;;;5022513;28;19925;-88
2023/01/13 06:43:13;;;;;;;;;;;8.00;99.90;;;;;;5019502;28;19929;-90
2023/01/13 06:44:03;;;;;;;;;;;8.00;99.90;;;;;;5021235;28;19925;-88
2023/01/13 06:46:29;;;;;;;;;;;8.00;99.90;;;;;;5022050;28;19971;-88
2023/01/13 06:48:54;;;;;;;;;;;8.00;99.90;;;;;;5036884;28;19929;-87
2023/01/13 06:51:20;;;;;;;;;;;8.00;99.90;;;;;;5013115;28;20030;-88
2023/01/13 06:53:46;;;;;;;;;;;8.00;99.90;;;;;;5015562;28;20232;-88
2023/01/13 06:56:11;;;;;;;;;;;8.00;99.90;;;;;;5022895;28;19932;-87
2023/01/13 06:58:37;;;;;;;;;;;8.00;99.90;;;;;;4995857;28;19930;-87
2023/01/13 07:01:02;;;;;;;;;;;8.00;99.90;;;;;;5020458;28;20281;-87
2023/01/13 07:03:28;;;;;;;;;;;8.10;99.90;;;;;;5034999;28;20081;-87
2023/01/13 07:05:54;;;;;;;;;;;8.10;99.90;;;;;;5034912;28;19925;-86
2023/01/13 07:08:20;;;;;;;;;;;8.00;99.90;;;;;;5021369;28;19995;-88
2023/01/13 07:10:45;;;;;;;;;;;8.00;99.90;;;;;;4990398;28;20016;-88
2023/01/13 07:15:59;;;;;;;;;;;8.00;99.90;;;;;;5037953;28;19948;-87
2023/01/13 07:18:26;;;;;;;;;;;8.00;99.90;;;;;;5021023;28;19933;-88
2023/01/13 07:20:55;;;;;;;;;;;8.00;99.90;;;;;;5021944;28;19933;-88
2023/01/13 07:23:21;;;;;;;;;;;7.90;99.90;;;;;;5019018;28;19957;-88
2023/01/13 07:25:47;;;;;;;;;;;7.90;99.90;;;;;;5005900;28;19933;-88
2023/01/13 07:28:12;;;;;;;;;;;7.90;99.90;;;;;;5020674;28;20356;-87
2023/01/13 07:30:38;;;;;;;;;;;7.90;99.90;;;;;;5021492;28;20332;-87
2023/01/13 07:33:04;;;;;;;;;;;7.90;99.90;;;;;;5036071;28;19929;-87
2023/01/13 07:35:29;;;;;;;;;;;7.90;99.90;;;;;;5004107;28;20445;-87
2023/01/13 07:37:55;;;;;;;;;;;7.90;99.90;;;;;;5021942;28;19948;-87
2023/01/13 07:40:20;;;;;;;;;;;7.80;99.90;;;;;;5019979;28;19926;-88
2023/01/13 07:45:30;;;;;;;;;;;7.80;99.90;;;;;;5031549;28;19925;-88
2023/01/13 07:47:55;;;;;;;;;;;7.70;99.90;;;;;;5037337;28;19971;-88
2023/01/13 07:50:22;;;;;;;;;;;7.70;99.90;;;;;;5020684;28;19925;-88
2023/01/13 07:52:48;;;;;;;;;;;7.70;99.90;;;;;;5019636;28;19929;-89
2023/01/13 07:55:14;;;;;;;;;;;7.60;99.90;;;;;;5019905;28;19937;-89
2023/01/13 07:57:39;;;;;;;;;;;7.60;99.90;;;;;;5035150;28;19932;-88
2023/01/13 08:00:05;;;;;;;;;;;7.60;99.90;;;;;;5021741;28;19925;-88
2023/01/13 08:02:31;;;;;;;;;;;7.50;99.90;;;;;;5000385;28;19952;-87
2023/01/13 08:04:57;;;;;;;;;;;7.50;99.90;;;;;;5036427;28;19961;-87
2023/01/13 08:07:22;;;;;;;;;;;7.50;99.90;;;;;;4985170;28;19952;-88
2023/01/13 08:09:49;;;;;;;;;;;7.40;99.90;;;;;;5018704;28;19979;-88
2023/01/13 08:14:58;;;;;;;;;;;7.40;99.90;;;;;;5009465;28;19925;-87
2023/01/13 08:17:24;;;;;;;;;;;7.40;99.90;;;;;;5032873;28;19925;-87
2023/01/13 08:19:50;;;;;;;;;;;7.40;99.90;;;;;;5019308;28;20014;-87
2023/01/13 08:22:15;;;;;;;;;;;7.40;99.90;;;;;;5008619;28;20035;-88
2023/01/13 08:24:41;;;;;;;;;;;7.40;99.90;;;;;;5034682;28;20548;-88
2023/01/13 08:27:06;;;;;;;;;;;7.40;99.90;;;;;;5005090;28;20565;-90
2023/01/13 08:29:32;;;;;;;;;;;7.40;99.90;;;;;;5042109;28;19928;-88
2023/01/13 08:31:57;;;;;;;;;;;7.40;99.90;;;;;;5042758;28;20358;-83
2023/01/13 08:34:23;;;;;;;;;;;7.40;99.90;;;;;;5038447;28;20357;-82
2023/01/13 08:36:49;;;;;;;;;;;7.40;99.90;;;;;;5036158;28;19965;-82
2023/01/13 08:39:14;;;;;;;;;;;7.40;99.90;;;;;;5020025;28;19972;-82
2023/01/13 08:41:53;;;;;;;;;;;7.40;99.90;;;;;;5020744;28;20442;-82
2023/01/13 08:44:19;;;;;;;;;;;7.40;99.90;;;;;;5036913;28;19929;-82
2023/01/13 08:46:45;;;;;;;;;;;7.40;99.90;;;;;;5038516;28;19928;-82
2023/01/13 08:49:10;;;;;;;;;;;7.40;99.90;;;;;;5036369;28;19939;-82
2023/01/13 08:51:36;;;;;;;;;;;7.40;99.90;;;;;;5020517;28;19929;-81
2023/01/13 08:54:02;;;;;;;;;;;7.40;99.90;;;;;;5019369;28;20380;-82
2023/01/13 08:56:30;;;;;;;;;;;7.40;99.90;;;;;;5001224;28;19981;-89
2023/01/13 08:58:56;;;;;;;;;;;7.50;99.90;;;;;;5018175;28;19929;-89
2023/01/13 09:01:22;;;;;;;;;;;7.50;99.90;;;;;;5016680;28;19992;-89
2023/01/13 09:03:48;;;;;;;;;;;7.50;99.90;;;;;;5004482;28;19971;-88
2023/01/13 09:06:13;;;;;;;;;;;7.50;99.90;;;;;;5018143;28;19971;-89
2023/01/13 09:08:39;;;;;;;;;;;7.60;99.90;;;;;;5021073;28;20028;-90
2023/01/13 09:13:10;;;;;;;;;;;7.60;99.90;;;;;;5007764;28;19976;-89
2023/01/13 09:13:50;;;;;;;;;;;7.60;99.90;;;;;;5012135;28;19932;-88
2023/01/13 09:16:16;;;;;;;;;;;7.60;99.90;;;;;;5019188;28;19929;-89
2023/01/13 09:18:42;;;;;;;;;;;7.60;99.90;;;;;;5019539;28;19932;-90
2023/01/13 09:21:10;;;;;;;;;;;7.60;99.90;;;;;;5035790;28;20056;-90
2023/01/13 09:23:36;;;;;;;;;;;7.60;99.90;;;;;;5029958;28;19926;-88
2023/01/13 09:26:01;;;;;;;;;;;7.60;99.90;;;;;;5021447;28;19932;-89
2023/01/13 09:28:27;;;;;;;;;;;7.70;99.90;;;;;;5014377;28;20497;-89
2023/01/13 09:30:52;;;;;;;;;;;7.70;99.90;;;;;;4996094;28;19935;-90
2023/01/13 09:36:02;;;;;;;;;;;7.70;99.90;;;;;;5018124;28;20012;-88
2023/01/13 09:38:28;;;;;;;;;;;7.70;99.90;;;;;;5006379;28;19929;-88
2023/01/13 09:40:54;;;;;;;;;;;7.70;99.90;;;;;;5016283;28;19929;-88
2023/01/13 09:46:42;;;;;;;;;;;7.90;99.90;;;;;;5019954;28;19929;-89
2023/01/13 09:48:58;;;;;;;;;;;7.90;99.90;;;;;;5017733;28;19925;-89
2023/01/13 09:51:28;;;;;;;;;;;7.90;99.90;;;;;;5018824;28;19932;-91
2023/01/13 09:54:12;;;;;;;;;;;7.90;99.90;;;;;;5018116;28;20016;-90
2023/01/13 09:56:37;;;;;;;;;;;7.90;99.90;;;;;;5020175;28;19929;-88
2023/01/13 09:59:03;;;;;;;;;;;7.90;99.90;;;;;;4998403;28;19976;-90
2023/01/13 10:01:44;;;;;;;;;;;7.90;99.90;;;;;;4995945;28;19941;-88
2023/01/13 10:04:11;;;;;;;;;;;7.80;99.90;;;;;;5038168;28;19989;-89
2023/01/13 10:06:38;;;;;;;;;;;7.80;99.90;;;;;;5017637;28;19929;-88
2023/01/13 10:09:04;;;;;;;;;;;7.80;99.90;;;;;;5035064;28;19925;-89
2023/01/13 10:14:33;;;;;;;;;;;7.80;99.90;;;;;;5035132;28;20283;-89
2023/01/13 10:16:59;;;;;;;;;;;7.70;99.90;;;;;;5006852;28;19932;-89
2023/01/13 10:19:28;;;;;;;;;;;7.80;99.90;;;;;;5024212;28;19987;-88
2023/01/13 10:21:56;;;;;;;;;;;7.80;99.90;;;;;;5004899;28;19950;-88
2023/01/13 10:24:38;;;;;;;;;;;7.70;99.90;;;;;;5030425;28;19925;-89
2023/01/13 10:27:09;;;;;;;;;;;7.70;99.90;;;;;;5033732;28;19932;-90
2023/01/13 10:29:35;;;;;;;;;;;7.80;99.90;;;;;;5030223;28;19929;-91
2023/01/13 10:32:00;;;;;;;;;;;7.80;99.90;;;;;;5021075;28;19975;-89
2023/01/13 10:34:27;;;;;;;;;;;7.80;99.90;;;;;;5022503;28;19929;-90
2023/01/13 10:37:01;;;;;;;;;;;7.80;99.90;;;;;;5005036;28;19948;-88
2023/01/13 10:39:37;;;;;;;;;;;7.80;99.90;;;;;;5031141;28;21261;-90
2023/01/13 10:42:11;;;;;;;;;;;7.80;99.90;;;;;;5028433;28;20352;-87
2023/01/13 10:44:45;;;;;;;;;;;7.80;99.90;;;;;;4999990;28;19929;-89
2023/01/13 10:47:18;;;;;;;;;;;7.80;99.90;;;;;;5015248;28;19971;-88
2023/01/13 10:49:57;;;;;;;;;;;7.80;99.90;;;;;;5000419;28;19952;-88
2023/01/13 10:52:24;;;;;;;;;;;7.80;99.90;;;;;;4993177;28;19941;-88
2023/01/13 10:54:50;;;;;;;;;;;7.80;99.90;;;;;;5013251;28;19936;-87
2023/01/13 10:57:20;;;;;;;;;;;7.80;99.90;;;;;;4997332;28;19976;-88
2023/01/13 10:59:46;;;;;;;;;;;7.80;99.90;;;;;;5017050;28;19928;-88
2023/01/13 11:02:15;;;;;;;;;;;7.80;99.90;;;;;;5013139;28;20325;-87
2023/01/13 11:04:53;;;;;;;;;;;7.80;99.90;;;;;;5030830;28;19929;-88
2023/01/13 11:07:33;;;;;;;;;;;7.90;99.90;;;;;;5026864;28;19936;-88
2023/01/13 11:10:08;;;;;;;;;;;7.90;99.90;;;;;;5026822;28;19980;-88
2023/01/13 11:12:38;;;;;;;;;;;7.90;99.90;;;;;;5016032;28;19937;-88
2023/01/13 11:15:07;;;;;;;;;;;7.80;99.90;;;;;;4998119;28;20453;-88
2023/01/13 11:17:39;;;;;;;;;;;7.80;99.90;;;;;;5012626;28;19933;-88
2023/01/13 11:20:10;;;;;;;;;;;7.80;99.90;;;;;;5014528;28;19929;-89
2023/01/13 11:22:38;;;;;;;;;;;7.80;99.90;;;;;;5030606;28;20108;-88
2023/01/13 11:25:08;;;;;;;;;;;7.80;99.90;;;;;;5016093;28;19929;-88
2023/01/13 11:27:54;;;;;;;;;;;7.80;99.90;;;;;;4985972;28;19932;-88
2023/01/13 11:30:24;;;;;;;;;;;7.90;99.90;;;;;;5017369;28;19929;-89
2023/01/13 11:33:08;;;;;;;;;;;7.90;99.90;;;;;;5015363;28;19929;-88
2023/01/13 11:35:36;;;;;;;;;;;7.90;99.90;;;;;;5018885;28;19933;-89
2023/01/13 11:38:11;;;;;;;;;;;7.90;99.90;;;;;;5017709;28;20394;-89
2023/01/13 11:40:44;;;;;;;;;;;7.90;99.90;;;;;;5014338;28;21420;-89
2023/01/13 11:43:10;;;;;;;;;;;7.90;99.90;;;;;;5016160;28;21290;-89
2023/01/13 11:45:39;;;;;;;;;;;7.90;99.90;;;;;;5031205;28;19925;-89
2023/01/13 11:48:04;;;;;;;;;;;7.90;99.90;;;;;;5016504;28;19936;-82
2023/01/13 11:50:35;;;;;;;;;;;7.90;99.90;;;;;;5038671;28;19929;-81
2023/01/13 11:53:19;;;;;;;;;;;7.90;99.90;;;;;;5037283;28;19932;-81
2023/01/13 11:55:54;;;;;;;;;;;7.80;99.90;;;;;;5038191;28;19925;-81
2023/01/13 11:58:26;;;;;;;;;;;7.80;99.90;;;;;;5036895;28;19961;-81
2023/01/13 12:00:54;;;;;;;;;;;7.80;99.90;;;;;;5003406;28;19925;-80
2023/01/13 12:03:27;;;;;;;;;;;7.90;99.90;;;;;;5038641;28;19996;-80
2023/01/13 12:06:02;;;;;;;;;;;8.00;99.90;;;;;;5036994;28;20387;-81
2023/01/13 12:08:43;;;;;;;;;;;8.00;99.90;;;;;;5020655;28;20363;-80
2023/01/13 12:11:12;;;;;;;;;;;8.00;99.90;;;;;;5019532;28;19934;-79
2023/01/13 12:13:47;;;;;;;;;;;8.10;99.90;;;;;;5036815;28;19929;-80
2023/01/13 12:16:14;;;;;;;;;;;8.10;99.90;;;;;;5038406;28;19936;-80
2023/01/13 12:18:49;;;;;;;;;;;8.20;99.90;;;;;;5036161;28;19925;-80
2023/01/13 12:21:25;;;;;;;;;;;8.20;99.90;;;;;;5038772;28;19971;-80
2023/01/13 12:23:51;;;;;;;;;;;8.30;99.90;;;;;;5016583;28;20113;-80
2023/01/13 12:26:16;;;;;;;;;;;8.40;99.90;;;;;;5033558;28;19989;-88
2023/01/13 12:28:48;;;;;;;;;;;8.40;99.90;;;;;;5019068;28;20107;-88
2023/01/13 12:31:17;;;;;;;;;;;8.50;99.90;;;;;;5019639;28;19980;-87
2023/01/13 12:33:49;;;;;;;;;;;8.50;99.90;;;;;;5020181;28;19929;-87
2023/01/13 12:36:21;;;;;;;;;;;8.50;99.90;;;;;;5035248;28;19925;-87
2023/01/13 12:38:55;;;;;;;;;;;8.50;99.90;;;;;;5002306;28;19932;-87
2023/01/13 12:41:32;;;;;;;;;;;8.50;99.90;;;;;;5031672;28;19936;-87
2023/01/13 12:44:17;;;;;;;;;;;8.50;99.90;;;;;;5042857;28;20030;-88
2023/01/13 12:46:52;;;;;;;;;;;8.50;99.90;;;;;;5002429;28;19936;-88
2023/01/13 12:49:28;;;;;;;;;;;8.50;99.90;;;;;;5017015;28;20600;-87
2023/01/13 12:51:53;;;;;;;;;;;8.50;99.90;;;;;;5038270;28;20345;-88
2023/01/13 12:54:38;;;;;;;;;;;8.50;99.90;;;;;;5019796;28;19925;-88
2023/01/13 12:57:22;;;;;;;;;;;8.50;99.90;;;;;;5019586;28;19929;-87
2023/01/13 13:00:03;;;;;;;;;;;8.50;99.90;;;;;;5036996;28;19928;-88
2023/01/13 13:02:30;;;;;;;;;;;8.50;99.90;;;;;;5019207;28;19925;-87
2023/01/13 13:04:57;;;;;;;;;;;8.40;99.90;;;;;;5002444;28;19929;-88
2023/01/13 13:07:29;;;;;;;;;;;8.40;99.90;;;;;;5019565;28;19979;-87
2023/01/13 13:10:00;;;;;;;;;;;8.50;99.90;;;;;;5017124;28;19925;-87
2023/01/13 13:15:29;;;;;;;;;;;8.50;99.90;;;;;;5019088;28;19932;-88
2023/01/13 13:17:58;;;;;;;;;;;8.50;99.90;;;;;;5019317;28;19925;-88
2023/01/13 13:20:43;;;;;;;;;;;8.60;99.90;;;;;;5036267;28;19933;-87
2023/01/13 13:23:25;;;;;;;;;;;8.60;99.90;;;;;;5018887;28;20399;-87
2023/01/13 13:26:10;;;;;;;;;;;8.60;99.90;;;;;;5034999;28;19967;-87
2023/01/13 13:28:37;;;;;;;;;;;8.60;99.90;;;;;;5035161;28;20382;-87
2023/01/13 13:31:16;;;;;;;;;;;8.60;99.90;;;;;;5002300;28;19948;-89
2023/01/13 13:33:52;;;;;;;;;;;8.60;99.90;;;;;;5002025;28;19925;-87
2023/01/13 13:36:37;;;;;;;;;;;8.60;99.90;;;;;;5018231;28;19925;-87
2023/01/13 13:47:37;;;;;;;;;;;8.60;99.90;;;;;;5008374;28;19939;-88
2023/01/13 13:50:10;;;;;;;;;;;8.60;99.90;;;;;;4998055;28;19964;-87
2023/01/13 13:53:04;;;;;;;;;;;8.60;99.90;;;;;;5010189;28;19925;-89
2023/01/13 13:55:30;;;;;;;;;;;8.60;99.90;;;;;;5011878;28;19948;-87
2023/01/13 13:57:56;;;;;;;;;;;8.60;99.90;;;;;;5012256;28;20410;-87
2023/01/13 14:00:25;;;;;;;;;;;8.70;99.90;;;;;;5019420;28;19929;-87
2023/01/13 14:02:57;;;;;;;;;;;8.70;99.90;;;;;;5032134;28;19925;-88
2023/01/13 14:05:29;;;;;;;;;;;8.60;99.90;;;;;;5009238;28;20105;-88
2023/01/13 14:08:08;;;;;;;;;;;8.70;99.90;;;;;;5012690;28;21125;-89
2023/01/13 14:10:36;;;;;;;;;;;8.70;99.90;;;;;;5005078;28;19933;-87
2023/01/13 14:13:12;;;;;;;;;;;8.60;99.90;;;;;;5018693;28;20011;-87
2023/01/13 14:15:38;;;;;;;;;;;8.60;99.90;;;;;;5001320;28;19939;-87
2023/01/13 14:18:05;;;;;;;;;;;8.60;99.90;;;;;;5028304;28;19990;-87
2023/01/13 14:20:33;;;;;;;;;;;8.60;99.90;;;;;;5033526;28;19976;-88
2023/01/13 14:23:00;;;;;;;;;;;8.60;99.90;;;;;;5030324;28;20447;-87
2023/01/13 14:25:27;;;;;;;;;;;8.60;99.90;;;;;;5013824;28;20026;-88
2023/01/13 14:27:53;;;;;;;;;;;8.70;99.90;;;;;;5031939;28;19989;-88
2023/01/13 14:30:20;;;;;;;;;;;8.70;99.90;;;;;;5001037;28;19932;-88
2023/01/13 14:32:46;;;;;;;;;;;8.70;99.90;;;;;;5031561;28;19932;-87
2023/01/13 14:35:15;;;;;;;;;;;8.70;99.90;;;;;;5014218;28;19928;-88
2023/01/13 14:37:41;;;;;;;;;;;8.80;99.90;;;;;;5015845;28;19933;-81
2023/01/13 14:40:26;;;;;;;;;;;8.70;99.90;;;;;;5011446;28;19944;-80
2023/01/13 14:42:55;;;;;;;;;;;8.80;99.90;;;;;;5015138;28;19924;-80
2023/01/13 14:45:24;;;;;;;;;;;8.70;99.90;;;;;;5018035;28;19936;-80
2023/01/13 14:47:51;;;;;;;;;;;8.70;99.90;;;;;;5021428;28;19925;-80
2023/01/13 14:50:26;;;;;;;;;;;8.70;99.90;;;;;;5039699;28;19933;-80
2023/01/13 14:52:56;;;;;;;;;;;8.70;99.90;;;;;;5038132;28;19925;-81
2023/01/13 14:55:21;;;;;;;;;;;8.60;99.90;;;;;;5039594;28;20011;-81
2023/01/13 14:57:48;;;;;;;;;;;8.70;99.90;;;;;;5038787;28;19932;-81
2023/01/13 15:00:13;;;;;;;;;;;8.70;99.90;;;;;;5040245;28;19944;-81
2023/01/13 15:02:48;;;;;;;;;;;8.70;99.90;;;;;;5039083;28;19964;-81
2023/01/13 15:05:23;;;;;;;;;;;8.70;99.90;;;;;;5037274;28;19925;-80
2023/01/13 15:07:56;;;;;;;;;;;8.80;99.90;;;;;;5022401;28;19925;-80
2023/01/13 15:10:30;;;;;;;;;;;8.80;99.90;;;;;;5003939;28;19940;-81
2023/01/13 15:12:56;;;;;;;;;;;8.80;99.90;;;;;;5038261;28;19944;-81
2023/01/13 15:15:27;;;;;;;;;;;8.80;99.90;;;;;;5004798;28;19968;-80
2023/01/13 15:17:53;;;;;;;;;;;8.80;99.90;;;;;;5021207;28;20310;-81
2023/01/13 15:20:20;;;;;;;;;;;8.80;99.90;;;;;;5039739;28;19929;-80
2023/01/13 15:22:46;;;;;;;;;;;8.80;99.90;;;;;;5036822;28;19948;-81
2023/01/13 15:25:12;;;;;;;;;;;8.70;99.90;;;;;;5021917;28;19932;-81
2023/01/13 15:27:38;;;;;;;;;;;8.80;99.90;;;;;;5019610;28;19935;-81
2023/01/13 15:30:13;;;;;;;;;;;8.80;99.90;;;;;;5005658;28;19964;-82
2023/01/13 15:32:39;;;;;;;;;;;8.70;99.90;;;;;;5037537;28;19925;-81
2023/01/13 15:35:04;;;;;;;;;;;8.80;99.90;;;;;;5036793;28;19940;-81
2023/01/13 15:37:30;;;;;;;;;;;8.80;99.90;;;;;;5039462;28;19925;-81